createdAt,value
2019-01-21T00:01:37.721Z,43.37
2019-01-21T00:04:08.510Z,42.50
2019-01-21T00:06:38.936Z,40.37
2019-01-21T00:09:09.828Z,40.20
2019-01-21T00:11:40.399Z,45.23
2019-01-21T00:14:10.910Z,38.00
2019-01-21T00:16:41.327Z,40.83
2019-01-21T00:19:11.779Z,40.33
2019-01-21T00:21:42.203Z,46.30
2019-01-21T00:24:12.661Z,46.40
2019-01-21T00:26:43.169Z,41.93
2019-01-21T00:29:13.600Z,42.90
2019-01-21T00:31:44.054Z,41.50
2019-01-21T00:34:14.463Z,43.43
2019-01-21T00:36:44.908Z,39.10
2019-01-21T00:39:15.357Z,43.33
2019-01-21T00:41:45.763Z,41.97
2019-01-21T00:44:16.211Z,40.73
2019-01-21T00:46:46.681Z,37.23
2019-01-21T00:49:17.110Z,40.60
2019-01-21T00:51:47.533Z,43.63
2019-01-21T00:54:17.996Z,44.63
2019-01-21T00:56:48.503Z,47.87
2019-01-21T00:59:19.019Z,42.30
2019-01-21T01:01:49.440Z,38.07
2019-01-21T01:04:19.871Z,36.63
2019-01-21T01:06:50.370Z,32.93
2019-01-21T01:09:20.783Z,32.73
2019-01-21T01:11:51.227Z,29.20
2019-01-21T01:14:21.674Z,29.13
2019-01-21T01:16:52.079Z,36.80
2019-01-21T01:19:22.546Z,36.70
2019-01-21T01:21:52.961Z,40.77
2019-01-21T01:24:23.424Z,40.47
2019-01-21T01:26:53.854Z,42.67
2019-01-21T01:29:24.372Z,39.70
2019-01-21T01:31:54.796Z,36.00
2019-01-21T01:34:25.203Z,38.43
2019-01-21T01:36:55.690Z,35.87
2019-01-21T01:39:26.084Z,33.80
2019-01-21T01:41:56.650Z,34.80
2019-01-21T01:44:27.544Z,37.40
2019-01-21T01:46:57.997Z,32.17
2019-01-21T01:49:28.420Z,37.53
2019-01-21T01:51:58.835Z,38.00
2019-01-21T01:54:29.295Z,36.80
2019-01-21T01:56:59.977Z,39.40
2019-01-21T01:59:30.439Z,39.40
2019-01-21T02:02:00.951Z,37.60
2019-01-21T02:04:31.358Z,36.80
2019-01-21T02:07:01.863Z,37.17
2019-01-21T02:09:32.323Z,37.87
2019-01-21T02:12:02.838Z,39.97
2019-01-21T02:14:33.247Z,38.17
2019-01-21T02:17:03.730Z,40.07
2019-01-21T02:19:36.354Z,35.87
2019-01-21T02:22:06.894Z,38.57
2019-01-21T02:24:41.529Z,36.53
2019-01-21T02:27:21.635Z,36.73
2019-01-21T02:30:26.508Z,40.57
2019-01-21T02:33:58.564Z,36.90
2019-01-21T02:37:10.159Z,37.30
2019-01-21T02:39:56.661Z,45.03
2019-01-21T02:43:01.616Z,40.10
2019-01-21T02:45:55.515Z,42.03
2019-01-21T02:48:52.721Z,38.97
2019-01-21T02:51:50.726Z,40.40
2019-01-21T02:54:48.695Z,35.83
2019-01-21T02:57:55.799Z,38.70
2019-01-21T03:00:51.481Z,37.93
2019-01-21T03:03:39.707Z,37.80
2019-01-21T03:06:44.514Z,37.10
2019-01-21T03:09:46.926Z,36.20
2019-01-21T03:12:56.214Z,39.03
2019-01-21T03:16:02.949Z,35.73
2019-01-21T03:19:15.552Z,32.90
2019-01-21T03:22:14.146Z,35.40
2019-01-21T03:25:27.212Z,37.80
2019-01-21T03:28:26.078Z,35.97
2019-01-21T03:32:01.665Z,35.67
2019-01-21T03:35:11.345Z,33.10
2019-01-21T03:38:15.884Z,39.13
2019-01-21T03:41:10.110Z,33.77
2019-01-21T03:44:12.494Z,32.67
2019-01-21T03:47:05.629Z,35.10
2019-01-21T03:49:56.707Z,33.30
2019-01-21T03:52:50.724Z,33.43
2019-01-21T03:55:21.497Z,35.10
2019-01-21T03:58:40.626Z,32.23
2019-01-21T04:01:32.126Z,31.33
2019-01-21T04:04:43.778Z,34.70
2019-01-21T04:07:43.556Z,32.70
2019-01-21T04:10:46.595Z,36.87
2019-01-21T04:14:03.705Z,33.73
2019-01-21T04:17:08.990Z,32.87
2019-01-21T04:20:03.792Z,31.67
2019-01-21T04:22:58.509Z,33.63
2019-01-21T04:26:12.306Z,34.23
2019-01-21T04:29:02.952Z,34.63
2019-01-21T04:32:12.369Z,35.57
2019-01-21T04:35:09.363Z,31.43
2019-01-21T04:38:11.842Z,31.27
2019-01-21T04:41:47.426Z,37.47
2019-01-21T04:44:53.251Z,34.03
2019-01-21T04:47:58.498Z,31.10
2019-01-21T04:51:15.670Z,37.57
2019-01-21T04:54:15.743Z,35.13
2019-01-21T04:57:12.159Z,35.70
2019-01-21T05:00:32.057Z,34.27
2019-01-21T05:03:54.010Z,32.63
2019-01-21T05:07:23.166Z,34.13
2019-01-21T05:10:37.397Z,38.10
2019-01-21T05:13:33.203Z,47.13
2019-01-21T05:16:36.883Z,56.10
2019-01-21T05:19:32.370Z,48.30
2019-01-21T05:23:04.788Z,41.77
2019-01-21T05:26:06.820Z,46.13
2019-01-21T05:29:06.234Z,44.40
2019-01-21T05:32:24.631Z,45.63
2019-01-21T05:35:53.501Z,43.23
2019-01-21T05:38:51.182Z,38.63
2019-01-21T05:42:23.480Z,42.73
2019-01-21T05:45:36.132Z,38.60
2019-01-21T05:48:59.300Z,38.90
2019-01-21T05:52:13.536Z,35.57
2019-01-21T05:55:06.566Z,39.53
2019-01-21T05:58:20.472Z,57.07
2019-01-21T06:01:58.603Z,44.30
2019-01-21T06:04:48.238Z,41.93
2019-01-21T06:07:54.632Z,30.97
2019-01-21T06:10:40.847Z,32.97
2019-01-21T06:13:56.286Z,36.40
2019-01-21T06:16:51.913Z,31.27
2019-01-21T06:19:59.102Z,34.50
2019-01-21T06:23:03.080Z,31.13
2019-01-21T06:26:38.536Z,36.13
2019-01-21T06:29:59.258Z,33.90
2019-01-21T06:33:15.437Z,35.07
2019-01-21T06:36:41.843Z,37.77
2019-01-21T06:39:41.090Z,40.47
2019-01-21T06:42:53.831Z,43.80
2019-01-21T06:46:10.878Z,32.73
2019-01-21T06:49:13.540Z,27.20
2019-01-21T06:52:29.746Z,23.67
2019-01-21T06:55:36.270Z,22.43
2019-01-21T06:58:53.126Z,22.87
2019-01-21T07:01:50.215Z,24.10
2019-01-21T07:05:02.372Z,22.47
2019-01-21T07:08:03.260Z,23.63
2019-01-21T07:11:02.307Z,27.63
2019-01-21T07:14:10.233Z,30.13
2019-01-21T07:17:01.793Z,50.40
2019-01-21T07:20:01.397Z,42.50
2019-01-21T07:22:54.931Z,29.80
2019-01-21T07:26:14.623Z,28.20
2019-01-21T07:29:21.473Z,25.53
2019-01-21T07:32:17.143Z,23.73
2019-01-21T07:35:24.468Z,27.27
2019-01-21T07:38:31.575Z,29.73
2019-01-21T07:41:27.345Z,20.67
2019-01-21T07:44:24.027Z,28.70
2019-01-21T07:47:39.782Z,29.83
2019-01-21T07:51:08.999Z,22.87
2019-01-21T07:54:25.607Z,27.53
2019-01-21T07:57:40.184Z,25.13
2019-01-21T08:00:41.017Z,24.07
2019-01-21T08:03:56.509Z,31.60
2019-01-21T08:07:07.549Z,26.07
2019-01-21T08:10:10.918Z,25.83
2019-01-21T08:13:16.678Z,30.90
2019-01-21T08:16:33.695Z,26.20
2019-01-21T08:19:49.376Z,28.67
2019-01-21T08:22:51.314Z,29.97
2019-01-21T08:26:17.231Z,33.93
2019-01-21T08:29:29.510Z,33.30
2019-01-21T08:32:37.010Z,30.77
2019-01-21T08:35:42.756Z,36.67
2019-01-21T08:39:14.706Z,37.23
2019-01-21T08:42:21.111Z,37.03
2019-01-21T08:45:44.040Z,40.27
2019-01-21T08:48:39.657Z,40.47
2019-01-21T08:51:33.571Z,46.97
2019-01-21T08:54:56.746Z,42.77
2019-01-21T08:58:06.568Z,43.40
2019-01-21T09:00:59.208Z,42.50
2019-01-21T09:03:42.071Z,40.47
2019-01-21T09:07:09.027Z,46.27
2019-01-21T09:09:50.031Z,46.73
2019-01-21T09:13:07.198Z,50.83
2019-01-21T09:16:21.710Z,50.90
2019-01-21T09:19:12.577Z,53.43
2019-01-21T09:22:13.477Z,58.63
2019-01-21T09:25:13.798Z,59.67
2019-01-21T09:28:01.231Z,59.00
2019-01-21T09:30:51.970Z,55.50
2019-01-21T09:33:52.061Z,50.97
2019-01-21T09:36:31.528Z,49.57
2019-01-21T09:39:29.268Z,51.70
2019-01-21T09:42:22.402Z,54.77
2019-01-21T09:45:13.965Z,46.20
2019-01-21T09:47:42.449Z,45.03
2019-01-21T09:50:13.185Z,43.67
2019-01-21T09:52:44.603Z,43.67
2019-01-21T09:55:16.512Z,36.13
2019-01-21T09:57:47.916Z,30.50
2019-01-21T10:00:20.002Z,29.97
2019-01-21T10:02:52.395Z,34.13
2019-01-21T10:05:26.096Z,26.13
2019-01-21T10:08:18.189Z,25.97
2019-01-21T10:11:09.547Z,23.10
2019-01-21T10:14:19.744Z,26.27
2019-01-21T10:17:08.150Z,24.70
2019-01-21T10:20:12.709Z,22.70
2019-01-21T10:23:19.516Z,37.23
2019-01-21T10:26:33.559Z,30.63
2019-01-21T10:29:23.055Z,26.03
2019-01-21T10:32:18.238Z,22.43
2019-01-21T10:35:29.057Z,24.10
2019-01-21T10:38:37.841Z,26.80
2019-01-21T10:41:22.066Z,22.67
2019-01-21T10:44:11.045Z,24.87
2019-01-21T10:47:12.105Z,26.03
2019-01-21T10:50:14.130Z,37.30
2019-01-21T10:53:27.046Z,20.60
2019-01-21T10:56:47.273Z,27.37
2019-01-21T10:59:35.319Z,21.80
2019-01-21T11:02:47.895Z,22.73
2019-01-21T11:05:54.228Z,24.07
2019-01-21T11:09:26.832Z,20.40
2019-01-21T11:12:35.634Z,21.77
2019-01-21T11:15:39.571Z,23.43
2019-01-21T11:18:42.001Z,21.90
2019-01-21T11:21:51.875Z,25.20
2019-01-21T11:24:55.030Z,21.33
2019-01-21T11:28:01.833Z,21.37
2019-01-21T11:31:17.987Z,26.73
2019-01-21T11:34:26.460Z,25.93
2019-01-21T11:37:31.797Z,20.13
2019-01-21T11:40:44.750Z,18.70
2019-01-21T11:43:57.523Z,20.70
2019-01-21T11:47:12.468Z,22.10
2019-01-21T11:50:20.905Z,15.70
2019-01-21T11:53:16.815Z,17.93
2019-01-21T11:56:30.100Z,18.60
2019-01-21T11:59:47.446Z,18.83
2019-01-21T12:02:45.343Z,18.27
2019-01-21T12:05:24.886Z,20.53
2019-01-21T12:09:00.196Z,21.47
2019-01-21T12:12:13.282Z,19.37
2019-01-21T12:15:38.193Z,19.80
2019-01-21T12:18:33.721Z,19.40
2019-01-21T12:21:40.939Z,18.97
2019-01-21T12:24:32.911Z,17.00
2019-01-21T12:27:55.421Z,20.90
2019-01-21T12:30:39.978Z,16.30
2019-01-21T12:33:31.887Z,17.20
2019-01-21T12:36:33.076Z,18.77
2019-01-21T12:39:22.657Z,15.63
2019-01-21T12:42:24.065Z,17.23
2019-01-21T12:45:53.869Z,17.50
2019-01-21T12:49:15.274Z,16.67
2019-01-21T12:52:00.997Z,16.03
2019-01-21T12:54:59.214Z,15.10
2019-01-21T12:57:56.340Z,16.13
2019-01-21T13:00:53.960Z,17.63
2019-01-21T13:03:44.315Z,15.87
2019-01-21T13:07:04.240Z,15.47
2019-01-21T13:09:45.329Z,16.27
2019-01-21T13:12:42.677Z,17.40
2019-01-21T13:15:27.526Z,16.47
2019-01-21T13:18:30.547Z,19.27
2019-01-21T13:21:36.628Z,18.33
2019-01-21T13:24:53.554Z,21.07
2019-01-21T13:27:52.740Z,19.27
2019-01-21T13:30:59.415Z,19.67
2019-01-21T13:33:56.312Z,19.87
2019-01-21T13:37:20.776Z,21.80
2019-01-21T13:40:12.907Z,33.40
2019-01-21T13:43:05.777Z,25.70
2019-01-21T13:46:04.826Z,27.23
2019-01-21T13:49:07.464Z,27.67
2019-01-21T13:52:42.657Z,35.63
2019-01-21T13:55:33.337Z,28.17
2019-01-21T13:59:11.484Z,33.13
2019-01-21T14:02:08.315Z,28.40
2019-01-21T14:05:09.928Z,26.80
2019-01-21T14:08:03.290Z,25.60
2019-01-21T14:10:59.027Z,30.20
2019-01-21T14:14:01.394Z,29.50
2019-01-21T14:17:03.681Z,27.07
2019-01-21T14:19:52.698Z,26.70
2019-01-21T14:22:50.756Z,24.60
2019-01-21T14:25:49.497Z,28.87
2019-01-21T14:29:00.861Z,32.37
2019-01-21T14:32:26.147Z,28.47
2019-01-21T14:35:07.427Z,25.37
2019-01-21T14:38:15.821Z,30.60
2019-01-21T14:41:29.917Z,26.70
2019-01-21T14:44:33.798Z,24.37
2019-01-21T14:47:37.024Z,26.53
2019-01-21T14:50:34.752Z,25.97
2019-01-21T14:53:39.224Z,28.63
2019-01-21T14:56:42.318Z,29.33
2019-01-21T14:59:43.178Z,26.50
2019-01-21T15:02:46.156Z,29.53
2019-01-21T15:06:03.175Z,28.57
2019-01-21T15:08:57.875Z,30.53
2019-01-21T15:12:07.630Z,29.67
2019-01-21T15:15:14.451Z,33.70
2019-01-21T15:18:15.649Z,36.80
2019-01-21T15:21:04.201Z,30.07
2019-01-21T15:24:11.094Z,29.57
2019-01-21T15:27:03.982Z,29.63
2019-01-21T15:29:59.844Z,31.63
2019-01-21T15:32:54.954Z,37.63
2019-01-21T15:36:11.979Z,58.03
2019-01-21T15:39:03.773Z,64.63
2019-01-21T15:41:44.592Z,63.13
2019-01-21T15:44:33.022Z,59.23
2019-01-21T15:47:35.978Z,63.23
2019-01-21T15:50:41.085Z,59.37
2019-01-21T15:53:31.014Z,57.03
2019-01-21T15:56:39.756Z,57.30
2019-01-21T15:59:49.166Z,51.00
2019-01-21T16:02:31.383Z,46.20
2019-01-21T16:05:23.860Z,48.37
2019-01-21T16:08:21.248Z,45.27
2019-01-21T16:11:38.230Z,42.17
2019-01-21T16:14:26.136Z,41.00
2019-01-21T16:17:22.581Z,42.53
2019-01-21T16:20:01.005Z,43.90
2019-01-21T16:23:09.894Z,43.37
2019-01-21T16:26:23.851Z,45.30
2019-01-21T16:29:32.620Z,47.63
2019-01-21T16:32:52.780Z,49.23
2019-01-21T16:36:11.068Z,65.87
2019-01-21T16:39:16.957Z,100.93
2019-01-21T16:42:13.078Z,72.00
2019-01-21T16:44:44.995Z,62.07
2019-01-21T16:47:15.547Z,57.70
2019-01-21T16:49:46.219Z,60.07
2019-01-21T16:52:16.738Z,58.23
2019-01-21T16:54:47.156Z,63.27
2019-01-21T16:57:17.628Z,60.53
2019-01-21T16:59:48.084Z,65.93
2019-01-21T17:02:18.500Z,60.50
2019-01-21T17:04:49.069Z,58.30
2019-01-21T17:07:19.493Z,56.33
2019-01-21T17:09:50.052Z,57.10
2019-01-21T17:12:20.508Z,54.40
2019-01-21T17:14:57.485Z,55.63
2019-01-21T17:17:23.117Z,55.03
2019-01-21T17:19:53.577Z,53.77
2019-01-21T17:22:24.049Z,50.30
2019-01-21T17:24:54.485Z,54.03
2019-01-21T17:27:24.939Z,50.13
2019-01-21T17:29:55.488Z,47.07
2019-01-21T17:32:25.905Z,45.00
2019-01-21T17:34:56.834Z,44.87
2019-01-21T17:37:27.278Z,44.83
2019-01-21T17:39:57.836Z,49.60
2019-01-21T17:42:28.255Z,42.40
2019-01-21T17:44:58.709Z,42.30
2019-01-21T17:47:29.129Z,42.53
2019-01-21T17:49:59.692Z,39.63
2019-01-21T17:52:30.109Z,39.80
2019-01-21T17:55:00.576Z,35.53
2019-01-21T17:57:31.005Z,35.53
2019-01-21T18:00:01.465Z,34.03
2019-01-21T18:02:31.888Z,34.23
2019-01-21T18:05:02.308Z,32.57
2019-01-21T18:07:32.769Z,33.97
2019-01-21T18:10:03.188Z,34.70
2019-01-21T18:12:33.660Z,31.70
2019-01-21T18:15:04.536Z,34.90
2019-01-21T18:17:34.987Z,33.97
2019-01-21T18:20:07.845Z,40.07
2019-01-21T18:22:38.318Z,26.77
2019-01-21T18:25:10.092Z,24.10
2019-01-21T18:27:40.615Z,22.03
2019-01-21T18:30:17.676Z,20.87
2019-01-21T18:32:48.298Z,19.93
2019-01-21T18:35:18.747Z,18.73
2019-01-21T18:37:49.267Z,19.90
2019-01-21T18:40:20.791Z,18.40
2019-01-21T18:42:51.790Z,18.83
2019-01-21T18:45:24.928Z,21.90
2019-01-21T18:47:55.509Z,19.47
2019-01-21T18:50:26.094Z,18.90
2019-01-21T18:52:56.664Z,19.23
2019-01-21T18:55:27.185Z,18.03
2019-01-21T18:57:57.677Z,18.57
2019-01-21T19:00:28.232Z,18.40
2019-01-21T19:02:58.683Z,18.73
2019-01-21T19:05:29.203Z,18.73
2019-01-21T19:07:59.672Z,18.40
2019-01-21T19:10:30.136Z,16.63
2019-01-21T19:13:00.609Z,17.37
2019-01-21T19:15:32.778Z,16.77
2019-01-21T19:18:03.695Z,17.73
2019-01-21T19:20:34.098Z,18.27
2019-01-21T19:23:04.664Z,18.13
2019-01-21T19:25:35.229Z,19.23
2019-01-21T19:28:05.851Z,18.67
2019-01-21T19:30:36.330Z,18.77
2019-01-21T19:33:06.854Z,20.20
2019-01-21T19:35:38.646Z,19.10
2019-01-21T19:38:09.148Z,18.70
2019-01-21T19:40:39.622Z,19.70
2019-01-21T19:43:10.026Z,18.17
2019-01-21T19:45:40.488Z,19.43
2019-01-21T19:48:11.006Z,19.33
2019-01-21T19:50:41.436Z,25.77
2019-01-21T19:53:11.893Z,18.60
2019-01-21T19:55:43.955Z,17.70
2019-01-21T19:58:14.889Z,18.27
2019-01-21T20:00:45.414Z,18.83
2019-01-21T20:03:15.935Z,19.23
2019-01-21T20:05:46.499Z,19.17
2019-01-21T20:08:16.916Z,18.83
2019-01-21T20:10:47.386Z,19.43
2019-01-21T20:13:17.811Z,20.00
2019-01-21T20:15:48.243Z,18.50
2019-01-21T20:18:18.709Z,18.60
2019-01-21T20:20:49.116Z,19.97
2019-01-21T20:23:19.594Z,20.47
2019-01-21T20:25:50.008Z,19.40
2019-01-21T20:28:20.435Z,20.23
2019-01-21T20:30:50.856Z,21.00
2019-01-21T20:33:21.305Z,21.50
2019-01-21T20:35:51.737Z,19.23
2019-01-21T20:38:22.201Z,20.90
2019-01-21T20:40:52.631Z,19.10
2019-01-21T20:43:23.087Z,21.67
2019-01-21T20:45:53.506Z,19.50
2019-01-21T20:48:23.943Z,20.33
2019-01-21T20:50:54.452Z,19.53
2019-01-21T20:53:24.904Z,20.50
2019-01-21T20:55:55.338Z,19.70
2019-01-21T20:58:25.896Z,19.77
2019-01-21T21:00:56.428Z,19.70
2019-01-21T21:03:26.900Z,19.73
2019-01-21T21:05:57.336Z,20.00
2019-01-21T21:08:27.796Z,20.57
2019-01-21T21:10:58.267Z,21.73
2019-01-21T21:13:28.691Z,20.50
2019-01-21T21:15:59.116Z,21.67
2019-01-21T21:18:29.584Z,20.73
2019-01-21T21:21:00.055Z,21.10
2019-01-21T21:23:30.525Z,22.07
2019-01-21T21:26:00.976Z,22.23
2019-01-21T21:28:31.614Z,22.67
2019-01-21T21:31:02.042Z,21.27
2019-01-21T21:33:32.517Z,20.90
2019-01-21T21:36:02.945Z,19.67
2019-01-21T21:38:33.398Z,20.83
2019-01-21T21:41:04.241Z,21.10
2019-01-21T21:43:34.664Z,23.20
2019-01-21T21:46:05.261Z,21.57
2019-01-21T21:48:35.711Z,19.27
2019-01-21T21:51:06.145Z,19.60
2019-01-21T21:53:36.784Z,21.73
2019-01-21T21:56:07.205Z,18.63
2019-01-21T21:58:37.683Z,20.30
2019-01-21T22:01:08.244Z,18.60
2019-01-21T22:03:38.650Z,18.33
2019-01-21T22:06:09.230Z,19.70
2019-01-21T22:08:39.685Z,20.97
2019-01-21T22:11:10.110Z,19.60
2019-01-21T22:13:40.685Z,19.03
2019-01-21T22:16:11.104Z,18.80
2019-01-21T22:18:41.562Z,19.47
2019-01-21T22:21:11.983Z,19.40
2019-01-21T22:23:42.441Z,18.63
2019-01-21T22:26:12.901Z,18.33
2019-01-21T22:28:43.634Z,18.40
2019-01-21T22:31:14.059Z,18.27
2019-01-21T22:33:44.516Z,19.00
2019-01-21T22:36:14.948Z,18.50
2019-01-21T22:38:45.409Z,19.50
2019-01-21T22:41:15.868Z,18.20
2019-01-21T22:43:46.276Z,19.60
2019-01-21T22:46:16.693Z,19.83
2019-01-21T22:48:47.112Z,18.27
2019-01-21T22:51:17.637Z,16.37
2019-01-21T22:53:48.110Z,19.50
2019-01-21T22:56:18.530Z,19.30
2019-01-21T22:58:48.959Z,19.10
2019-01-21T23:01:24.641Z,17.93
2019-01-21T23:03:55.241Z,21.87
2019-01-21T23:06:25.795Z,20.47
2019-01-21T23:08:56.253Z,19.47
2019-01-21T23:11:26.665Z,18.40
2019-01-21T23:13:57.080Z,20.90
2019-01-21T23:16:27.539Z,19.20
2019-01-21T23:18:57.967Z,18.83
2019-01-21T23:21:28.374Z,20.93
2019-01-21T23:23:58.835Z,20.17
2019-01-21T23:26:29.235Z,18.93
2019-01-21T23:28:59.800Z,19.40
2019-01-21T23:31:30.272Z,19.53
2019-01-21T23:34:00.741Z,19.27
2019-01-21T23:36:31.233Z,20.37
2019-01-21T23:39:01.935Z,19.97
2019-01-21T23:41:32.409Z,22.23
2019-01-21T23:44:02.915Z,20.03
2019-01-21T23:46:33.366Z,22.83
2019-01-21T23:49:03.777Z,20.33
2019-01-21T23:51:34.475Z,23.67
2019-01-21T23:54:05.028Z,24.93
2019-01-21T23:56:35.454Z,22.53
2019-01-21T23:59:06.019Z,20.93
